Terminal Aerodrome Forecast
Issued by NWS Wilmington, OH

Current Version | Previous Version | Graphics & Text | Print | Product List | Glossary On
Versions: 1 2 3 4 5 6 7 8 9 10 11 12 13 14 15 16 17 18 19
000
FTUS41 KILN 201905 AAB
TAFILN
TAF AMD
KILN 201905Z 2019/2118 20014G23KT P6SM BKN250
     FM202200 20009KT P6SM SCT250
     FM210600 20011KT P6SM SCT250 WS020/23040KT
     FM211400 21014G24KT P6SM BKN250=

USA.gov is the U.S. government's official web portal to all federal, state and local government web resources and services.